Time;durP1;ratioP1;P1;durP2;ratioP2;P2;SDS_P1;SDS_P2;PMS_P1;PMS_P2;Temp;Humidity;BMP_temperature;BMP_pressure;BME280_temperature;BME280_humidity;BME280_pressure;Samples;Min_cycle;Max_cycle;Signal;HPM_P1;HPM_P2
2021/12/18 13:36:50;;;;;;;9.27;5.15;;;;;;;;;;4888147;27;6246152;-74
2021/12/18 13:39:26;;;;;;;8.93;5.03;;;;;;;;;;5089856;28;20032;-74
2021/12/18 13:41:59;;;;;;;8.05;4.68;;;;;;;;;;5086155;28;20510;-73
2021/12/18 13:44:38;;;;;;;6.78;4.22;;;;;;;;;;5084596;28;21073;-74
2021/12/18 13:47:15;;;;;;;8.10;4.65;;;;;;;;;;5091535;28;20021;-73
2021/12/18 13:49:41;;;;;;;9.70;5.32;;;;;;;;;;5099278;28;20111;-75
2021/12/18 13:52:07;;;;;;;9.75;4.70;;;;;;;;;;5093554;28;20021;-73
2021/12/18 13:54:38;;;;;;;8.70;4.75;;;;;;;;;;5093592;28;20112;-73
2021/12/18 13:57:04;;;;;;;9.70;5.22;;;;;;;;;;5092191;28;20070;-73
2021/12/18 13:59:31;;;;;;;14.60;5.68;;;;;;;;;;5093178;28;20024;-73
2021/12/18 14:02:01;;;;;;;10.20;5.72;;;;;;;;;;5090541;28;20444;-75
2021/12/18 14:04:28;;;;;;;9.35;5.75;;;;;;;;;;5095027;28;20020;-74
2021/12/18 14:06:54;;;;;;;8.02;4.50;;;;;;;;;;5091281;28;20081;-75
2021/12/18 14:09:23;;;;;;;8.95;3.63;;;;;;;;;;5092670;28;20019;-75
2021/12/18 14:11:57;;;;;;;4.95;3.30;;;;;;;;;;5094897;28;20090;-76
2021/12/18 14:14:34;;;;;;;4.25;3.00;;;;;;;;;;5090695;28;20024;-76
2021/12/18 14:17:00;;;;;;;7.03;3.17;;;;;;;;;;5089972;28;20040;-76
2021/12/18 14:19:27;;;;;;;4.97;3.40;;;;;;;;;;5091073;28;20024;-76
2021/12/18 14:21:53;;;;;;;7.35;4.00;;;;;;;;;;5090667;28;20111;-76
2021/12/18 14:24:20;;;;;;;7.07;3.50;;;;;;;;;;5094151;28;20027;-77
2021/12/18 14:27:05;;;;;;;5.35;3.05;;;;;;;;;;5089071;28;20058;-75
2021/12/18 14:29:36;;;;;;;8.75;3.70;;;;;;;;;;5096096;28;20078;-75
2021/12/18 14:32:05;;;;;;;6.97;3.35;;;;;;;;;;5097204;28;20027;-75
2021/12/18 14:34:33;;;;;;;6.05;3.42;;;;;;;;;;5096888;28;20043;-75
2021/12/18 14:37:05;;;;;;;5.15;3.25;;;;;;;;;;5094770;28;20406;-75
2021/12/18 14:39:44;;;;;;;6.00;3.60;;;;;;;;;;5094234;28;20081;-75
2021/12/18 14:42:12;;;;;;;5.82;3.53;;;;;;;;;;5096566;28;20406;-74
2021/12/18 14:44:43;;;;;;;8.75;4.05;;;;;;;;;;5095872;28;20039;-73
2021/12/18 14:47:11;;;;;;;6.32;3.47;;;;;;;;;;5088097;28;20035;-75
2021/12/18 14:49:37;;;;;;;7.53;3.75;;;;;;;;;;5081873;28;20029;-75
2021/12/18 14:52:04;;;;;;;6.50;3.80;;;;;;;;;;5078345;28;20024;-74
2021/12/18 14:54:30;;;;;;;5.50;3.55;;;;;;;;;;5077489;28;20120;-75
2021/12/18 14:57:17;;;;;;;7.05;3.80;;;;;;;;;;5081405;28;20027;-74
2021/12/18 14:59:43;;;;;;;9.95;4.43;;;;;;;;;;5079054;28;20376;-74
2021/12/18 15:02:09;;;;;;;4.88;3.63;;;;;;;;;;5082895;28;20020;-74
2021/12/18 15:04:35;;;;;;;8.52;4.10;;;;;;;;;;5082487;28;20495;-74
2021/12/18 15:07:01;;;;;;;7.22;4.07;;;;;;;;;;5078666;28;20150;-75
2021/12/18 15:09:28;;;;;;;10.00;4.78;;;;;;;;;;5081435;28;20055;-76
2021/12/18 15:11:54;;;;;;;7.50;4.85;;;;;;;;;;5076094;28;20476;-75
2021/12/18 15:14:20;;;;;;;8.25;4.65;;;;;;;;;;5079243;28;20036;-75
2021/12/18 15:17:07;;;;;;;8.93;5.15;;;;;;;;;;5080544;28;20124;-74
2021/12/18 15:19:34;;;;;;;8.98;4.65;;;;;;;;;;5081790;28;20443;-75
2021/12/18 15:22:03;;;;;;;8.73;5.10;;;;;;;;;;5080404;28;20039;-75
2021/12/18 15:24:29;;;;;;;7.30;4.90;;;;;;;;;;5082385;28;20079;-76
2021/12/18 15:26:59;;;;;;;9.10;4.80;;;;;;;;;;5079130;28;20552;-75
2021/12/18 15:29:26;;;;;;;7.53;4.90;;;;;;;;;;5080486;28;20073;-75
2021/12/18 15:31:53;;;;;;;9.90;5.20;;;;;;;;;;5078854;28;20107;-73
2021/12/18 15:34:23;;;;;;;10.73;5.50;;;;;;;;;;5081205;28;20055;-73
2021/12/18 15:36:50;;;;;;;8.30;5.40;;;;;;;;;;5078266;28;20045;-73
2021/12/18 15:39:16;;;;;;;10.05;5.70;;;;;;;;;;5079797;28;20391;-73
2021/12/18 15:41:43;;;;;;;10.43;8.15;;;;;;;;;;5081258;28;20029;-74
2021/12/18 15:44:09;;;;;;;11.82;7.40;;;;;;;;;;5084802;28;20410;-74
2021/12/18 15:46:36;;;;;;;14.75;7.50;;;;;;;;;;5082875;28;20035;-74
2021/12/18 15:49:03;;;;;;;12.07;6.95;;;;;;;;;;5076381;28;20028;-74
2021/12/18 15:51:30;;;;;;;16.48;9.05;;;;;;;;;;5072478;28;20040;-76
2021/12/18 15:53:57;;;;;;;12.40;7.50;;;;;;;;;;5074647;28;20025;-74
2021/12/18 15:56:23;;;;;;;17.83;10.45;;;;;;;;;;5071729;28;20373;-76
2021/12/18 15:58:49;;;;;;;21.17;11.60;;;;;;;;;;5075713;28;20032;-75
2021/12/18 16:01:16;;;;;;;29.40;15.70;;;;;;;;;;5056272;28;20465;-76
2021/12/18 16:03:42;;;;;;;17.05;9.43;;;;;;;;;;5075150;28;20047;-76
2021/12/18 16:06:13;;;;;;;14.88;8.98;;;;;;;;;;5079470;28;20403;-75
2021/12/18 16:08:40;;;;;;;13.80;8.27;;;;;;;;;;5071698;28;20036;-75
2021/12/18 16:11:06;;;;;;;15.80;8.23;;;;;;;;;;5074877;28;20138;-75
2021/12/18 16:13:32;;;;;;;11.02;7.38;;;;;;;;;;5077735;28;20104;-74
2021/12/18 16:15:58;;;;;;;14.02;8.02;;;;;;;;;;5080741;28;20055;-73
2021/12/18 16:18:24;;;;;;;17.27;9.30;;;;;;;;;;5082886;28;20020;-74
2021/12/18 16:20:51;;;;;;;17.15;9.13;;;;;;;;;;5078725;28;20036;-73
2021/12/18 16:23:17;;;;;;;16.35;9.18;;;;;;;;;;5079822;28;20020;-73
2021/12/18 16:25:45;;;;;;;16.42;9.20;;;;;;;;;;5076155;28;20479;-75
2021/12/18 16:28:11;;;;;;;14.43;9.13;;;;;;;;;;5077926;28;20013;-75
2021/12/18 16:30:38;;;;;;;17.50;9.57;;;;;;;;;;5081329;28;20107;-75
2021/12/18 16:33:04;;;;;;;16.35;9.50;;;;;;;;;;5079038;28;20020;-78
2021/12/18 16:35:30;;;;;;;18.85;9.70;;;;;;;;;;5069702;28;20711;-79
2021/12/18 16:40:42;;;;;;;16.88;10.35;;;;;;;;;;5073625;28;20032;-77
2021/12/18 16:43:08;;;;;;;18.83;10.45;;;;;;;;;;5079564;28;20042;-78
2021/12/18 16:45:35;;;;;;;19.42;10.05;;;;;;;;;;5077925;28;20031;-78
2021/12/18 16:48:01;;;;;;;15.48;10.27;;;;;;;;;;5072572;28;20476;-78
2021/12/18 16:50:28;;;;;;;21.30;10.85;;;;;;;;;;5071868;28;20039;-77
2021/12/18 16:52:54;;;;;;;16.92;10.90;;;;;;;;;;5075472;28;20092;-78
2021/12/18 16:55:21;;;;;;;19.38;9.63;;;;;;;;;;5076054;28;20036;-76
2021/12/18 16:57:47;;;;;;;18.05;9.88;;;;;;;;;;5075556;28;20484;-76
2021/12/18 17:00:14;;;;;;;17.10;9.68;;;;;;;;;;5078240;28;20028;-76
2021/12/18 17:02:41;;;;;;;17.45;10.27;;;;;;;;;;5078674;28;20028;-76
2021/12/18 17:05:07;;;;;;;18.00;10.63;;;;;;;;;;5074387;28;20024;-77
2021/12/18 17:07:34;;;;;;;15.15;10.55;;;;;;;;;;5072669;28;20153;-79
2021/12/18 17:10:00;;;;;;;14.55;9.98;;;;;;;;;;5073861;28;20028;-78
2021/12/18 17:12:30;;;;;;;18.58;11.07;;;;;;;;;;5069324;28;20415;-78
2021/12/18 17:14:56;;;;;;;18.83;10.50;;;;;;;;;;5071793;28;20032;-77
2021/12/18 17:17:22;;;;;;;17.40;9.77;;;;;;;;;;5069018;28;20350;-77
2021/12/18 17:19:50;;;;;;;19.08;10.57;;;;;;;;;;5072758;28;20056;-77
2021/12/18 17:22:17;;;;;;;17.42;10.43;;;;;;;;;;5075567;28;20506;-77
2021/12/18 17:24:43;;;;;;;16.92;10.20;;;;;;;;;;5081102;28;20039;-77
2021/12/18 17:27:09;;;;;;;15.35;10.13;;;;;;;;;;5075450;28;20025;-78
2021/12/18 17:29:35;;;;;;;14.85;9.38;;;;;;;;;;5078428;28;20032;-78
2021/12/18 17:32:01;;;;;;;14.00;8.95;;;;;;;;;;5074934;28;20038;-80
2021/12/18 17:34:28;;;;;;;15.70;9.05;;;;;;;;;;5076406;28;20031;-77
2021/12/18 17:36:54;;;;;;;13.77;8.95;;;;;;;;;;5076187;28;20052;-78
2021/12/18 17:39:20;;;;;;;16.27;9.55;;;;;;;;;;5079281;28;20433;-78
2021/12/18 17:41:47;;;;;;;14.65;9.20;;;;;;;;;;5077486;28;20468;-78
2021/12/18 17:44:13;;;;;;;20.50;9.50;;;;;;;;;;5072366;28;20025;-78
2021/12/18 17:46:39;;;;;;;16.98;10.60;;;;;;;;;;5076439;28;20032;-79
2021/12/18 17:49:06;;;;;;;19.58;10.60;;;;;;;;;;5077096;28;20050;-80
2021/12/18 17:51:33;;;;;;;19.88;10.95;;;;;;;;;;5075511;28;20077;-74
2021/12/18 17:53:59;;;;;;;17.80;11.23;;;;;;;;;;5077826;28;20020;-79
2021/12/18 17:56:26;;;;;;;19.95;11.40;;;;;;;;;;5074724;28;20043;-82
2021/12/18 17:58:52;;;;;;;19.70;12.45;;;;;;;;;;5077336;28;20111;-77
2021/12/18 18:01:18;;;;;;;18.77;13.20;;;;;;;;;;5074066;28;20052;-83
2021/12/18 18:03:45;;;;;;;25.65;14.38;;;;;;;;;;5068020;28;20039;-81
2021/12/18 18:06:11;;;;;;;23.75;14.35;;;;;;;;;;5071474;28;20474;-82
2021/12/18 18:08:37;;;;;;;23.08;13.23;;;;;;;;;;5073304;28;20032;-82
2021/12/18 18:11:04;;;;;;;22.33;12.98;;;;;;;;;;5072838;28;20056;-82
2021/12/18 18:13:31;;;;;;;20.35;13.85;;;;;;;;;;5069969;28;20507;-82
2021/12/18 18:15:58;;;;;;;27.02;13.48;;;;;;;;;;5072693;28;20048;-82
2021/12/18 18:18:25;;;;;;;23.80;15.13;;;;;;;;;;5075569;28;20048;-76
2021/12/18 18:20:52;;;;;;;27.08;15.65;;;;;;;;;;5073227;28;20020;-80
2021/12/18 18:23:19;;;;;;;27.10;15.60;;;;;;;;;;5071877;28;20013;-78
2021/12/18 18:25:46;;;;;;;26.83;15.75;;;;;;;;;;5072152;28;20475;-78
2021/12/18 18:28:13;;;;;;;27.77;15.20;;;;;;;;;;5075401;28;20021;-77
2021/12/18 18:30:39;;;;;;;28.63;16.50;;;;;;;;;;5075983;28;20033;-77
2021/12/18 18:33:06;;;;;;;30.77;18.25;;;;;;;;;;5079925;28;20020;-80
2021/12/18 18:35:32;;;;;;;30.23;17.52;;;;;;;;;;5073637;28;20059;-76
2021/12/18 18:37:58;;;;;;;33.17;16.65;;;;;;;;;;5075581;28;20399;-76
2021/12/18 18:40:25;;;;;;;31.08;16.65;;;;;;;;;;5077851;28;20146;-76
2021/12/18 18:42:52;;;;;;;28.85;17.25;;;;;;;;;;5078630;28;20107;-75
2021/12/18 18:45:23;;;;;;;27.63;17.13;;;;;;;;;;5079998;28;20052;-75
2021/12/18 18:47:58;;;;;;;28.50;17.42;;;;;;;;;;5077179;28;20032;-75
2021/12/18 18:50:31;;;;;;;33.83;18.10;;;;;;;;;;5079390;28;20470;-74
2021/12/18 18:52:57;;;;;;;30.63;17.00;;;;;;;;;;5076672;28;20020;-75
2021/12/18 18:55:23;;;;;;;28.17;16.88;;;;;;;;;;5076858;28;20131;-78
2021/12/18 18:57:49;;;;;;;28.48;16.17;;;;;;;;;;5076052;28;20020;-77
2021/12/18 19:00:18;;;;;;;27.90;17.17;;;;;;;;;;5077725;28;20494;-83
2021/12/18 19:02:45;;;;;;;27.27;15.70;;;;;;;;;;5077858;28;20403;-77
2021/12/18 19:05:11;;;;;;;26.50;16.08;;;;;;;;;;5074189;28;20090;-78
2021/12/18 19:07:37;;;;;;;26.55;16.15;;;;;;;;;;5076868;28;20032;-81
2021/12/18 19:10:05;;;;;;;28.40;16.25;;;;;;;;;;5076954;28;20033;-80
2021/12/18 19:12:31;;;;;;;25.08;16.23;;;;;;;;;;5077894;28;20137;-80
2021/12/18 19:14:57;;;;;;;27.63;15.70;;;;;;;;;;5057189;28;21591;-78
2021/12/18 19:17:24;;;;;;;28.23;16.25;;;;;;;;;;5074048;28;20032;-78
2021/12/18 19:20:02;;;;;;;29.10;16.73;;;;;;;;;;5079131;28;20028;-80
2021/12/18 19:22:28;;;;;;;25.55;15.80;;;;;;;;;;5073957;28;20028;-78
2021/12/18 19:24:54;;;;;;;25.20;15.32;;;;;;;;;;5076693;28;20500;-76
2021/12/18 19:27:20;;;;;;;23.63;14.95;;;;;;;;;;5077383;28;20082;-75
2021/12/18 19:29:47;;;;;;;25.33;14.88;;;;;;;;;;5080710;28;20381;-75
2021/12/18 19:32:13;;;;;;;22.58;14.80;;;;;;;;;;5076814;28;20028;-74
2021/12/18 19:34:39;;;;;;;23.38;14.25;;;;;;;;;;5080999;28;20511;-76
2021/12/18 19:37:05;;;;;;;25.02;14.15;;;;;;;;;;5073886;28;20028;-75
2021/12/18 19:39:31;;;;;;;21.80;13.30;;;;;;;;;;5077161;28;20043;-76
2021/12/18 19:41:57;;;;;;;26.67;13.75;;;;;;;;;;5077209;28;20396;-76
2021/12/18 19:44:23;;;;;;;24.90;14.45;;;;;;;;;;5077477;28;20106;-76
2021/12/18 19:46:49;;;;;;;24.10;14.38;;;;;;;;;;5077779;28;20036;-76
2021/12/18 19:49:16;;;;;;;24.48;14.18;;;;;;;;;;5080613;28;20082;-76
2021/12/18 19:51:43;;;;;;;23.80;14.23;;;;;;;;;;5079906;28;20076;-76
2021/12/18 19:54:09;;;;;;;22.98;13.73;;;;;;;;;;5078171;28;20025;-75
2021/12/18 19:56:35;;;;;;;21.83;13.77;;;;;;;;;;5079438;28;20511;-77
2021/12/18 19:59:01;;;;;;;23.33;14.35;;;;;;;;;;5076633;28;20032;-80
2021/12/18 20:01:27;;;;;;;25.33;13.82;;;;;;;;;;5078350;28;20031;-77
2021/12/18 20:06:38;;;;;;;23.15;14.05;;;;;;;;;;5076598;28;20561;-79
2021/12/18 20:09:04;;;;;;;21.20;13.23;;;;;;;;;;5079836;28;20829;-77
2021/12/18 20:11:30;;;;;;;21.25;13.48;;;;;;;;;;5080339;28;20119;-77
2021/12/18 20:14:01;;;;;;;23.42;13.23;;;;;;;;;;5079811;28;20028;-82
2021/12/18 20:16:27;;;;;;;23.10;13.98;;;;;;;;;;5077140;28;20040;-77
2021/12/18 20:18:53;;;;;;;22.52;13.25;;;;;;;;;;5078394;28;20032;-78
2021/12/18 20:21:19;;;;;;;21.92;13.52;;;;;;;;;;5074235;28;20029;-77
2021/12/18 20:23:45;;;;;;;22.45;13.80;;;;;;;;;;5080039;28;20035;-80
2021/12/18 20:26:11;;;;;;;23.48;14.70;;;;;;;;;;5079387;28;20478;-77
2021/12/18 20:28:38;;;;;;;23.55;14.52;;;;;;;;;;5077042;28;20032;-77
2021/12/18 20:31:04;;;;;;;29.83;16.70;;;;;;;;;;5075899;28;20075;-78
2021/12/18 20:33:31;;;;;;;26.23;15.02;;;;;;;;;;5073856;28;20040;-78
2021/12/18 20:36:00;;;;;;;28.45;15.73;;;;;;;;;;5079095;28;20131;-80
2021/12/18 20:38:31;;;;;;;31.38;15.93;;;;;;;;;;5078956;28;20016;-79
2021/12/18 20:41:00;;;;;;;26.52;15.65;;;;;;;;;;5079535;28;20408;-81
2021/12/18 20:43:27;;;;;;;28.13;15.93;;;;;;;;;;5081169;28;20387;-78
2021/12/18 20:45:53;;;;;;;26.08;14.95;;;;;;;;;;5077109;28;20162;-76
2021/12/18 20:48:19;;;;;;;26.00;16.25;;;;;;;;;;5074419;28;20474;-76
2021/12/18 20:50:45;;;;;;;28.38;16.80;;;;;;;;;;5077544;28;20111;-79
2021/12/18 20:53:11;;;;;;;23.70;15.15;;;;;;;;;;5079712;28;20023;-77
2021/12/18 20:55:37;;;;;;;29.58;15.48;;;;;;;;;;5078202;28;20047;-76
2021/12/18 20:58:05;;;;;;;28.85;15.23;;;;;;;;;;5074495;28;20020;-77
2021/12/18 21:00:34;;;;;;;28.58;15.80;;;;;;;;;;5074922;28;20564;-77
2021/12/18 21:03:01;;;;;;;27.13;16.35;;;;;;;;;;5079387;28;20035;-79
2021/12/18 21:05:28;;;;;;;30.15;16.73;;;;;;;;;;5080020;28;20032;-78
2021/12/18 21:07:57;;;;;;;29.92;15.80;;;;;;;;;;5077750;28;20488;-78
2021/12/18 21:10:27;;;;;;;30.85;17.55;;;;;;;;;;5076381;28;20061;-79
2021/12/18 21:12:53;;;;;;;36.65;19.13;;;;;;;;;;5077375;28;20027;-80
2021/12/18 21:15:19;;;;;;;30.95;17.83;;;;;;;;;;5077381;28;20025;-78
2021/12/18 21:17:47;;;;;;;34.38;19.05;;;;;;;;;;5078884;28;20499;-78
2021/12/18 21:20:14;;;;;;;33.00;18.42;;;;;;;;;;5080120;28;20050;-76
2021/12/18 21:22:41;;;;;;;32.90;18.40;;;;;;;;;;5080307;28;20060;-79
2021/12/18 21:25:08;;;;;;;36.33;19.30;;;;;;;;;;5081180;28;20036;-78
2021/12/18 21:27:34;;;;;;;41.97;20.23;;;;;;;;;;5081308;28;20028;-79
2021/12/18 21:30:00;;;;;;;31.45;18.33;;;;;;;;;;5074620;28;20085;-77
2021/12/18 21:32:26;;;;;;;33.00;19.17;;;;;;;;;;5077224;28;20030;-76
2021/12/18 21:37:20;;;;;;;42.35;21.67;;;;;;;;;;5076617;28;20039;-81
2021/12/18 21:39:48;;;;;;;33.92;19.75;;;;;;;;;;5073743;28;20039;-82
2021/12/18 21:42:18;;;;;;;41.28;21.88;;;;;;;;;;5077308;28;20086;-79
2021/12/18 21:44:45;;;;;;;42.45;22.58;;;;;;;;;;5072752;28;20027;-80
2021/12/18 21:47:13;;;;;;;42.72;22.98;;;;;;;;;;5075875;28;20501;-80
2021/12/18 21:49:40;;;;;;;37.78;21.92;;;;;;;;;;5077271;28;20028;-80
2021/12/18 21:52:07;;;;;;;38.33;21.13;;;;;;;;;;5076058;28;20024;-79
2021/12/18 21:54:34;;;;;;;39.42;22.75;;;;;;;;;;5081935;28;20032;-81
2021/12/18 21:57:00;;;;;;;43.20;21.70;;;;;;;;;;5074799;28;20036;-79
2021/12/18 21:59:26;;;;;;;40.05;22.05;;;;;;;;;;5077545;28;20020;-81
2021/12/18 22:02:00;;;;;;;36.95;21.83;;;;;;;;;;5077133;28;20028;-81
2021/12/18 22:04:32;;;;;;;40.80;22.88;;;;;;;;;;5077771;28;20035;-78
2021/12/18 22:06:58;;;;;;;37.70;22.33;;;;;;;;;;5082066;28;20372;-80
2021/12/18 22:09:25;;;;;;;40.65;21.45;;;;;;;;;;5080777;28;20054;-77
2021/12/18 22:11:52;;;;;;;37.67;21.83;;;;;;;;;;5085634;28;20029;-79
2021/12/18 22:14:20;;;;;;;41.75;22.60;;;;;;;;;;5076718;28;20147;-78
2021/12/18 22:16:56;;;;;;;35.00;21.40;;;;;;;;;;5078158;28;20476;-79
2021/12/18 22:19:23;;;;;;;38.53;21.88;;;;;;;;;;5066674;28;20020;-76
2021/12/18 22:21:50;;;;;;;37.10;22.05;;;;;;;;;;5083512;28;20051;-79
2021/12/18 22:24:16;;;;;;;40.17;22.42;;;;;;;;;;5079422;28;20111;-79
2021/12/18 22:26:42;;;;;;;42.00;21.50;;;;;;;;;;5085124;28;20028;-77
2021/12/18 22:29:08;;;;;;;35.63;21.20;;;;;;;;;;5082058;28;20032;-76
2021/12/18 22:31:35;;;;;;;40.35;23.08;;;;;;;;;;5075696;28;20033;-77
2021/12/18 22:34:01;;;;;;;39.40;21.90;;;;;;;;;;5082264;28;20056;-79
2021/12/18 22:36:29;;;;;;;44.47;22.92;;;;;;;;;;5079992;28;20052;-80
2021/12/18 22:38:55;;;;;;;43.85;23.70;;;;;;;;;;5085141;28;20530;-76
2021/12/18 22:41:21;;;;;;;41.22;23.65;;;;;;;;;;5077244;28;20032;-78
2021/12/18 22:43:48;;;;;;;41.53;23.85;;;;;;;;;;5084454;28;20032;-79
2021/12/18 22:46:14;;;;;;;47.20;24.63;;;;;;;;;;5079893;28;20032;-78
2021/12/18 22:48:41;;;;;;;42.10;23.00;;;;;;;;;;5078282;28;20036;-75
2021/12/18 22:51:07;;;;;;;45.58;24.70;;;;;;;;;;5081278;28;20395;-79
2021/12/18 22:53:34;;;;;;;41.22;23.73;;;;;;;;;;5080381;28;20031;-78
2021/12/18 22:56:01;;;;;;;46.17;24.95;;;;;;;;;;5087492;28;20033;-78
2021/12/18 22:58:28;;;;;;;39.25;22.83;;;;;;;;;;5078748;28;20440;-76
2021/12/18 23:01:09;;;;;;;40.53;22.75;;;;;;;;;;5076979;28;20035;-77
2021/12/18 23:03:37;;;;;;;38.03;22.55;;;;;;;;;;5080484;28;20407;-79
2021/12/18 23:06:03;;;;;;;40.03;23.00;;;;;;;;;;5073255;28;20593;-79
2021/12/18 23:08:32;;;;;;;438.08;246.80;;;;;;;;;;5080281;28;20027;-74
2021/12/18 23:10:59;;;;;;;423.00;247.85;;;;;;;;;;5077828;28;20082;-73
2021/12/18 23:13:51;;;;;;;355.38;203.75;;;;;;;;;;5080666;28;20032;-72
2021/12/18 23:16:35;;;;;;;187.23;95.78;;;;;;;;;;5075416;28;20036;-73
2021/12/18 23:21:34;;;;;;;87.80;49.10;;;;;;;;;;5080632;28;20093;-74
2021/12/18 23:24:00;;;;;;;106.25;54.40;;;;;;;;;;5077753;28;20035;-72
2021/12/18 23:26:26;;;;;;;79.53;39.50;;;;;;;;;;5078214;28;20484;-73
2021/12/18 23:28:53;;;;;;;59.17;31.77;;;;;;;;;;5078335;28;20055;-72
2021/12/18 23:31:19;;;;;;;62.50;34.83;;;;;;;;;;5076797;28;20563;-73
2021/12/18 23:33:45;;;;;;;45.58;26.35;;;;;;;;;;5082102;28;20476;-74
2021/12/18 23:36:12;;;;;;;65.30;34.47;;;;;;;;;;5076654;28;20052;-73
2021/12/18 23:38:38;;;;;;;47.60;27.25;;;;;;;;;;5076088;28;20032;-72
2021/12/18 23:41:05;;;;;;;46.20;26.42;;;;;;;;;;5078651;28;20028;-72
2021/12/18 23:48:46;;;;;;;48.85;26.60;;;;;;;;;;5077877;28;20058;-71
2021/12/18 23:51:12;;;;;;;41.20;22.30;;;;;;;;;;5077601;28;20032;-72
2021/12/18 23:53:38;;;;;;;46.80;26.38;;;;;;;;;;5071893;28;20491;-72
2021/12/18 23:56:04;;;;;;;43.63;25.60;;;;;;;;;;5076011;28;20047;-71
2021/12/18 23:58:30;;;;;;;42.88;23.75;;;;;;;;;;5079622;28;20021;-74
